sim
Sign-in with your pilot id or email,
or register
Callsign
Passwort

Schedule Details

Flight Number: OEO8887
Departure: Lille Airport (LFQQ) at 16:15
Arrival: Munich Airport (EDDM) at 17:45

Weather Information
Getting current METAR information for LFQQ 261800Z AUTO 30014KT 9999 BKN011/// ///CB 12/10 Q1003 TEMPO 3000 RA BKN008 BKN020CB
Getting current METAR information for EDDM 261750Z 25022G32KT 9999 -RA BKN023 OVC042 07/04 Q1001 NOSIG

Schedule Frequency

Route Map